Terminal Aerodrome Forecast
Issued by NWS

Home | Current Version | Previous Version | Text Only | Print | Product List | Glossary On
Versions: 1 2 3 4 5 6 7 8 9 10 11 12 13
000
FTUS46 KLOX 200500
TAFWJF
TAF
KWJF 200524Z 2006/2106 24008KT P6SM SKC
     FM201200 VRB03KT P6SM SKC
     FM202100 26007KT P6SM SCT120
     FM202300 23015G20KT P6SM SCT120
     FM210400 24010KT P6SM SKC=

USA.gov is the U.S. government's official web portal to all federal, state and local government web resources and services.